createdAt,value
2022-12-20T00:02:35.022Z,78.65
2022-12-20T00:07:52.216Z,78.69
2022-12-20T00:12:56.665Z,78.97
2022-12-20T00:18:00.334Z,79.10
2022-12-20T00:23:04.071Z,79.15
2022-12-20T00:28:07.595Z,79.21
2022-12-20T00:33:11.017Z,79.24
2022-12-20T00:38:15.054Z,79.35
2022-12-20T00:43:21.706Z,79.41
2022-12-20T00:48:26.132Z,79.17
2022-12-20T00:53:30.908Z,79.26
2022-12-20T00:58:36.612Z,78.69
2022-12-20T01:03:40.306Z,78.80
2022-12-20T01:08:44.078Z,78.69
2022-12-20T01:13:49.957Z,78.51
2022-12-20T01:18:54.055Z,78.25
2022-12-20T01:23:58.175Z,78.39
2022-12-20T01:29:01.700Z,78.39
2022-12-20T01:34:07.990Z,78.32
2022-12-20T01:39:16.043Z,78.21
2022-12-20T01:44:19.556Z,78.00
2022-12-20T01:49:33.085Z,77.89
2022-12-20T01:54:54.050Z,77.62
2022-12-20T01:59:57.805Z,77.51
2022-12-20T02:05:01.785Z,77.41
2022-12-20T02:10:08.361Z,76.75
2022-12-20T02:15:33.203Z,76.02
2022-12-20T02:20:47.455Z,75.93
2022-12-20T02:25:50.806Z,76.31
2022-12-20T02:30:55.191Z,75.22
2022-12-20T02:36:04.283Z,74.66
2022-12-20T02:41:13.933Z,74.57
2022-12-20T02:46:19.496Z,74.43
2022-12-20T02:51:24.512Z,75.06
2022-12-20T02:56:29.477Z,74.65
2022-12-20T03:01:46.808Z,74.15
2022-12-20T03:07:02.844Z,73.99
2022-12-20T03:12:08.086Z,73.78
2022-12-20T03:17:13.454Z,74.07
2022-12-20T03:22:17.135Z,74.57
2022-12-20T03:27:21.188Z,75.09
2022-12-20T03:32:25.149Z,73.60
2022-12-20T03:37:28.742Z,73.20
2022-12-20T03:42:32.779Z,73.00
2022-12-20T03:47:36.376Z,73.04
2022-12-20T03:52:40.504Z,72.74
2022-12-20T03:57:43.994Z,72.42
2022-12-20T04:03:02.025Z,72.86
2022-12-20T04:08:07.238Z,72.30
2022-12-20T04:13:11.022Z,72.53
2022-12-20T04:18:14.797Z,72.83
2022-12-20T04:23:19.048Z,72.50
2022-12-20T04:28:25.006Z,72.17
2022-12-20T04:33:30.049Z,72.99
2022-12-20T04:38:34.101Z,72.59
2022-12-20T04:43:38.195Z,72.83
2022-12-20T04:48:59.520Z,72.45
2022-12-20T04:54:04.640Z,72.26
2022-12-20T04:59:15.516Z,72.39
2022-12-20T05:04:20.939Z,72.58
2022-12-20T05:09:24.546Z,73.12
2022-12-20T05:14:31.276Z,73.81
2022-12-20T05:19:36.741Z,73.72
2022-12-20T05:24:59.260Z,73.86
2022-12-20T05:30:08.500Z,73.63
2022-12-20T05:35:13.962Z,73.75
2022-12-20T05:40:28.270Z,73.22
2022-12-20T05:45:39.094Z,73.51
2022-12-20T05:50:49.576Z,73.82
2022-12-20T05:56:04.239Z,73.73
2022-12-20T06:01:13.201Z,73.92
2022-12-20T06:06:17.833Z,74.40
2022-12-20T06:11:29.604Z,73.93
2022-12-20T06:16:42.772Z,73.51
2022-12-20T06:22:00.477Z,73.42
2022-12-20T06:27:38.859Z,73.53
2022-12-20T06:32:49.993Z,74.04
2022-12-20T06:37:53.685Z,73.25
2022-12-20T06:42:58.754Z,73.44
2022-12-20T06:48:03.843Z,72.69
2022-12-20T06:53:14.327Z,72.30
2022-12-20T06:58:20.191Z,72.73
2022-12-20T07:03:25.767Z,72.91
2022-12-20T07:08:29.332Z,72.51
2022-12-20T07:13:33.215Z,72.48
2022-12-20T07:18:36.746Z,73.20
2022-12-20T07:23:40.932Z,71.68
2022-12-20T07:28:45.758Z,71.76
2022-12-20T07:33:49.450Z,71.94
2022-12-20T07:38:53.052Z,73.43
2022-12-20T07:43:59.588Z,72.78
2022-12-20T07:49:06.607Z,72.14
2022-12-20T07:54:21.388Z,73.37
2022-12-20T07:59:30.404Z,73.38
2022-12-20T08:04:34.528Z,71.57
2022-12-20T08:09:41.419Z,70.02
2022-12-20T08:14:59.928Z,71.02
2022-12-20T08:20:07.145Z,70.21
2022-12-20T08:25:12.253Z,69.79
2022-12-20T08:30:15.949Z,70.06
2022-12-20T08:35:19.673Z,69.47
2022-12-20T08:40:23.312Z,69.26
2022-12-20T08:45:27.091Z,71.80
2022-12-20T08:50:30.589Z,71.24
2022-12-20T08:55:34.267Z,71.15
2022-12-20T09:00:39.056Z,69.80
2022-12-20T09:05:49.928Z,68.54
2022-12-20T09:11:06.851Z,68.10
2022-12-20T09:16:12.277Z,67.67
2022-12-20T09:21:15.923Z,67.66
2022-12-20T09:26:22.410Z,66.26
2022-12-20T09:31:26.433Z,65.50
2022-12-20T09:36:30.488Z,65.22
2022-12-20T09:41:41.110Z,64.14
2022-12-20T09:46:45.369Z,63.16
2022-12-20T09:52:01.881Z,62.58
2022-12-20T09:57:27.077Z,65.40
2022-12-20T10:02:58.424Z,67.56
2022-12-20T10:08:08.637Z,63.55
2022-12-20T10:13:15.829Z,65.75
2022-12-20T10:18:59.554Z,60.88
2022-12-20T10:24:15.989Z,63.43
2022-12-20T10:29:21.568Z,63.49
2022-12-20T10:34:33.294Z,61.78
2022-12-20T10:39:48.409Z,62.54
2022-12-20T10:44:56.105Z,62.27
2022-12-20T10:50:25.404Z,60.74
2022-12-20T10:55:42.533Z,60.04
2022-12-20T11:01:14.660Z,62.45
2022-12-20T11:06:20.692Z,60.74
2022-12-20T11:11:25.743Z,57.95
2022-12-20T11:16:48.013Z,57.60
2022-12-20T11:22:12.152Z,57.96
2022-12-20T11:27:28.610Z,58.44
2022-12-20T11:32:32.360Z,61.53
2022-12-20T11:38:09.935Z,62.05
2022-12-20T11:44:01.088Z,64.27
2022-12-20T11:49:22.147Z,62.67
2022-12-20T11:54:39.171Z,61.36
2022-12-20T11:59:51.386Z,60.50
2022-12-20T12:05:01.985Z,63.73
2022-12-20T12:10:22.525Z,62.71
2022-12-20T12:15:42.203Z,61.39
2022-12-20T12:20:48.839Z,61.83
2022-12-20T12:25:53.383Z,62.18
2022-12-20T12:31:15.220Z,62.56
2022-12-20T12:36:41.943Z,62.88
2022-12-20T12:42:26.885Z,63.43
2022-12-20T12:47:38.634Z,63.59
2022-12-20T12:52:56.170Z,65.34
2022-12-20T12:58:33.796Z,64.57
2022-12-20T13:03:40.099Z,64.85
2022-12-20T13:08:59.070Z,64.34
2022-12-20T13:14:20.862Z,65.63
2022-12-20T13:19:27.371Z,66.11
2022-12-20T13:24:53.383Z,66.39
2022-12-20T13:30:00.027Z,65.63
2022-12-20T13:35:25.906Z,66.53
2022-12-20T13:40:43.279Z,67.39
2022-12-20T13:45:49.742Z,66.95
2022-12-20T13:50:57.634Z,66.69
2022-12-20T13:56:41.177Z,67.00
2022-12-20T14:01:53.691Z,67.76
2022-12-20T14:07:00.473Z,67.60
2022-12-20T14:12:28.721Z,68.02
2022-12-20T14:17:39.871Z,68.09
2022-12-20T14:23:04.972Z,68.35
2022-12-20T14:28:35.445Z,68.57
2022-12-20T14:33:40.683Z,69.04
2022-12-20T14:38:47.051Z,68.91
2022-12-20T14:43:56.391Z,69.07
2022-12-20T14:49:31.991Z,69.40
2022-12-20T15:00:18.405Z,69.83
2022-12-20T15:05:42.547Z,71.01
2022-12-20T15:11:25.099Z,70.10
2022-12-20T15:16:32.156Z,70.37
2022-12-20T15:21:46.529Z,70.66
2022-12-20T15:26:53.997Z,70.54
2022-12-20T15:32:17.450Z,70.74
2022-12-20T15:37:24.100Z,70.99
2022-12-20T15:42:28.734Z,71.42
2022-12-20T15:47:41.645Z,71.98
2022-12-20T15:52:53.744Z,72.88
2022-12-20T15:58:04.528Z,73.10
2022-12-20T16:03:25.338Z,72.87
2022-12-20T16:08:36.698Z,72.52
2022-12-20T16:13:46.384Z,72.36
2022-12-20T16:18:58.333Z,72.29
2022-12-20T16:24:07.258Z,72.20
2022-12-20T16:29:24.307Z,72.20
2022-12-20T16:34:56.131Z,72.36
2022-12-20T16:40:28.430Z,72.29
2022-12-20T16:45:51.628Z,72.47
2022-12-20T16:51:25.733Z,72.55
2022-12-20T16:56:38.089Z,72.37
2022-12-20T17:02:01.293Z,72.43
2022-12-20T17:07:14.175Z,72.35
2022-12-20T17:12:25.515Z,72.34
2022-12-20T17:17:34.813Z,72.40
2022-12-20T17:28:17.338Z,72.54
2022-12-20T17:33:23.928Z,72.42
2022-12-20T17:38:29.777Z,72.30
2022-12-20T17:43:41.468Z,72.34
2022-12-20T17:48:47.233Z,72.38
2022-12-20T17:53:56.396Z,72.46
2022-12-20T17:59:04.346Z,72.64
2022-12-20T18:04:10.195Z,72.58
2022-12-20T18:09:18.896Z,72.42
2022-12-20T18:14:22.630Z,72.56
2022-12-20T18:19:26.111Z,72.58
2022-12-20T18:24:29.946Z,72.37
2022-12-20T18:29:33.512Z,72.37
2022-12-20T18:34:37.467Z,72.58
2022-12-20T18:39:40.971Z,72.69
2022-12-20T18:44:48.437Z,72.87
2022-12-20T18:49:51.881Z,72.74
2022-12-20T18:54:57.290Z,72.71
2022-12-20T19:00:03.712Z,72.67
2022-12-20T19:05:07.994Z,72.55
2022-12-20T19:10:12.097Z,72.60
2022-12-20T19:15:22.526Z,72.71
2022-12-20T19:20:26.256Z,72.81
2022-12-20T19:25:32.907Z,72.92
2022-12-20T19:30:49.363Z,73.01
2022-12-20T19:35:58.204Z,73.06
2022-12-20T19:41:05.699Z,72.97
2022-12-20T19:46:28.402Z,72.89
2022-12-20T19:51:42.785Z,72.85
2022-12-20T19:57:01.323Z,72.73
2022-12-20T20:02:29.136Z,72.66
2022-12-20T20:07:37.888Z,72.69
2022-12-20T20:12:48.586Z,72.53
2022-12-20T20:18:38.496Z,72.46
2022-12-20T20:24:02.876Z,72.56
2022-12-20T20:29:13.573Z,72.39
2022-12-20T20:34:22.334Z,72.35
2022-12-20T20:39:51.626Z,72.39
2022-12-20T20:44:58.618Z,72.59
2022-12-20T20:50:16.807Z,72.09
2022-12-20T20:55:28.298Z,72.16
2022-12-20T21:00:48.101Z,72.27
2022-12-20T21:06:40.632Z,72.19
2022-12-20T21:12:07.565Z,72.24
2022-12-20T21:17:14.540Z,72.42
2022-12-20T21:22:26.730Z,71.99
2022-12-20T21:27:32.541Z,71.96
2022-12-20T21:32:41.974Z,72.24
2022-12-20T21:43:44.062Z,72.34
2022-12-20T21:48:52.398Z,72.03
2022-12-20T21:54:01.218Z,72.20
2022-12-20T21:59:09.142Z,72.14
2022-12-20T22:04:14.158Z,72.34
2022-12-20T22:09:17.852Z,72.30
2022-12-20T22:14:23.375Z,72.32
2022-12-20T22:19:30.051Z,72.33
2022-12-20T22:24:33.767Z,72.34
2022-12-20T22:29:40.162Z,72.39
2022-12-20T22:34:48.972Z,72.41
2022-12-20T22:39:53.492Z,72.54
2022-12-20T22:45:00.854Z,72.67
2022-12-20T22:50:05.696Z,72.91
2022-12-20T22:55:09.991Z,72.86
2022-12-20T23:00:15.743Z,72.91
2022-12-20T23:05:19.285Z,72.99
2022-12-20T23:10:46.055Z,73.02
2022-12-20T23:15:49.600Z,73.51
2022-12-20T23:21:13.081Z,73.45
2022-12-20T23:26:17.564Z,73.53
2022-12-20T23:31:21.167Z,73.30
2022-12-20T23:36:25.404Z,73.34
2022-12-20T23:41:29.055Z,73.65
2022-12-20T23:46:33.095Z,73.85
2022-12-20T23:51:36.535Z,74.03
2022-12-20T23:56:40.553Z,74.21
